createdAt,value
2023-11-02T00:02:28.714Z,1.00
2023-11-02T00:04:57.290Z,0.93
2023-11-02T00:07:24.561Z,0.93
2023-11-02T00:09:57.874Z,1.10
2023-11-02T00:12:32.479Z,0.90
2023-11-02T00:15:03.380Z,0.80
2023-11-02T00:17:49.457Z,1.10
2023-11-02T00:20:35.271Z,0.80
2023-11-02T00:23:05.169Z,1.23
2023-11-02T00:25:45.220Z,1.20
2023-11-02T00:28:12.340Z,0.90
2023-11-02T00:30:40.977Z,0.93
2023-11-02T00:33:07.846Z,1.13
2023-11-02T00:35:36.759Z,0.90
2023-11-02T00:38:03.578Z,1.15
2023-11-02T00:40:32.453Z,0.90
2023-11-02T00:42:59.326Z,0.90
2023-11-02T00:45:26.144Z,1.10
2023-11-02T00:47:53.186Z,1.15
2023-11-02T00:50:53.218Z,0.90
2023-11-02T00:53:22.325Z,0.90
2023-11-02T00:55:49.449Z,0.93
2023-11-02T00:58:23.590Z,1.00
2023-11-02T01:00:53.981Z,1.10
2023-11-02T01:03:25.814Z,0.90
2023-11-02T01:05:52.896Z,0.73
2023-11-02T01:08:30.735Z,1.00
2023-11-02T01:10:57.662Z,0.80
2023-11-02T01:13:24.680Z,0.80
2023-11-02T01:16:08.612Z,0.80
2023-11-02T01:18:40.922Z,0.95
2023-11-02T01:21:10.391Z,0.75
2023-11-02T01:23:37.636Z,0.70
2023-11-02T01:26:07.560Z,0.85
2023-11-02T01:28:56.000Z,0.70
2023-11-02T01:31:23.407Z,0.90
2023-11-02T01:33:57.351Z,0.73
2023-11-02T01:36:38.329Z,0.80
2023-11-02T01:39:17.016Z,0.90
2023-11-02T01:42:02.059Z,1.00
2023-11-02T01:44:38.352Z,0.70
2023-11-02T01:47:21.658Z,1.02
2023-11-02T01:49:56.658Z,0.90
2023-11-02T01:52:38.844Z,0.70
2023-11-02T01:55:51.971Z,0.90
2023-11-02T01:58:27.844Z,1.20
2023-11-02T02:01:23.277Z,0.88
2023-11-02T02:04:17.539Z,1.00
2023-11-02T02:06:47.226Z,1.10
2023-11-02T02:09:38.283Z,1.27
2023-11-02T02:12:26.788Z,0.93
2023-11-02T02:15:22.014Z,1.25
2023-11-02T02:17:58.372Z,1.30
2023-11-02T02:20:31.216Z,1.25
2023-11-02T02:23:11.351Z,1.20
2023-11-02T02:26:15.458Z,1.13
2023-11-02T02:28:42.417Z,1.40
2023-11-02T02:31:34.149Z,1.10
2023-11-02T02:34:40.429Z,1.33
2023-11-02T02:37:16.049Z,1.55
2023-11-02T02:39:47.451Z,1.30
2023-11-02T02:42:21.462Z,1.10
2023-11-02T02:44:49.843Z,1.10
2023-11-02T02:47:20.306Z,1.27
2023-11-02T02:49:52.893Z,1.65
2023-11-02T02:52:25.992Z,1.50
2023-11-02T02:54:54.811Z,1.20
2023-11-02T02:57:24.801Z,1.55
2023-11-02T02:59:56.210Z,1.33
2023-11-02T03:02:26.522Z,1.25
2023-11-02T03:04:55.998Z,1.27
2023-11-02T03:07:24.857Z,1.25
2023-11-02T03:09:56.073Z,1.40
2023-11-02T03:12:28.481Z,1.83
2023-11-02T03:15:00.929Z,1.52
2023-11-02T03:17:41.977Z,1.30
2023-11-02T03:20:11.220Z,1.40
2023-11-02T03:22:43.064Z,1.33
2023-11-02T03:25:32.804Z,1.08
2023-11-02T03:28:19.973Z,0.98
2023-11-02T03:30:55.704Z,1.58
2023-11-02T03:33:43.409Z,1.40
2023-11-02T03:36:18.157Z,1.10
2023-11-02T03:39:15.990Z,1.25
2023-11-02T03:42:01.486Z,1.02
2023-11-02T03:44:58.480Z,1.27
2023-11-02T03:48:01.341Z,1.25
2023-11-02T03:50:51.937Z,1.17
2023-11-02T03:53:40.224Z,1.48
2023-11-02T03:56:45.306Z,1.20
2023-11-02T03:59:17.783Z,1.10
2023-11-02T04:01:53.087Z,1.35
2023-11-02T04:04:33.606Z,1.60
2023-11-02T04:07:29.604Z,1.83
2023-11-02T04:10:07.832Z,1.75
2023-11-02T04:12:46.384Z,1.30
2023-11-02T04:15:18.291Z,1.38
2023-11-02T04:17:45.197Z,2.03
2023-11-02T04:20:15.371Z,1.10
2023-11-02T04:22:44.317Z,1.40
2023-11-02T04:25:11.403Z,1.13
2023-11-02T04:27:38.575Z,1.60
2023-11-02T04:30:08.798Z,1.70
2023-11-02T04:32:40.367Z,2.00
2023-11-02T04:35:07.458Z,2.20
2023-11-02T04:37:34.247Z,1.77
2023-11-02T04:40:00.964Z,1.60
2023-11-02T04:42:27.822Z,1.30
2023-11-02T04:44:54.642Z,1.55
2023-11-02T04:47:23.790Z,2.00
2023-11-02T04:49:50.452Z,1.38
2023-11-02T04:52:17.112Z,1.40
2023-11-02T04:54:46.141Z,1.52
2023-11-02T04:57:12.843Z,1.30
2023-11-02T04:59:43.543Z,1.30
2023-11-02T05:02:11.824Z,1.35
2023-11-02T05:04:40.838Z,1.38
2023-11-02T05:07:09.953Z,2.67
2023-11-02T05:09:36.701Z,1.45
2023-11-02T05:12:03.661Z,1.38
2023-11-02T05:14:30.452Z,1.75
2023-11-02T05:16:59.312Z,2.00
2023-11-02T05:19:26.016Z,1.40
2023-11-02T05:21:52.822Z,1.70
2023-11-02T05:24:19.557Z,1.27
2023-11-02T05:26:46.241Z,1.77
2023-11-02T05:29:13.013Z,1.70
2023-11-02T05:31:39.665Z,1.30
2023-11-02T05:34:06.454Z,1.30
2023-11-02T05:36:33.299Z,1.27
2023-11-02T05:39:02.690Z,1.50
2023-11-02T05:41:29.556Z,1.70
2023-11-02T05:43:56.283Z,1.42
2023-11-02T05:46:25.144Z,1.50
2023-11-02T05:48:51.955Z,1.52
2023-11-02T05:51:20.977Z,1.48
2023-11-02T05:53:47.655Z,1.60
2023-11-02T05:56:16.569Z,1.70
2023-11-02T05:58:43.698Z,1.90
2023-11-02T06:01:12.933Z,3.65
2023-11-02T06:03:39.664Z,7.10
2023-11-02T06:06:07.637Z,9.57
2023-11-02T06:08:34.572Z,9.88
2023-11-02T06:11:04.892Z,6.35
2023-11-02T06:13:31.827Z,5.95
2023-11-02T06:15:58.515Z,5.00
2023-11-02T06:18:27.714Z,3.13
2023-11-02T06:20:54.602Z,2.00
2023-11-02T06:23:23.472Z,2.47
2023-11-02T06:25:50.181Z,2.05
2023-11-02T06:28:20.904Z,1.60
2023-11-02T06:30:47.924Z,1.98
2023-11-02T06:33:27.677Z,1.48
2023-11-02T06:35:55.614Z,1.70
2023-11-02T06:38:25.702Z,1.38
2023-11-02T06:40:52.440Z,1.30
2023-11-02T06:43:19.198Z,1.80
2023-11-02T06:45:48.443Z,1.27
2023-11-02T06:48:17.718Z,1.60
2023-11-02T06:50:47.993Z,1.20
2023-11-02T06:53:14.742Z,1.30
2023-11-02T06:55:43.839Z,1.42
2023-11-02T06:58:12.871Z,1.27
2023-11-02T07:00:39.612Z,1.23
2023-11-02T07:03:06.436Z,1.45
2023-11-02T07:05:33.413Z,1.48
2023-11-02T07:08:00.237Z,1.40
2023-11-02T07:10:27.440Z,1.30
2023-11-02T07:12:56.808Z,1.48
2023-11-02T07:15:25.917Z,1.52
2023-11-02T07:17:53.771Z,1.75
2023-11-02T07:20:20.633Z,1.17
2023-11-02T07:22:47.408Z,2.08
2023-11-02T07:25:14.164Z,2.38
2023-11-02T07:27:41.023Z,2.15
2023-11-02T07:30:08.620Z,1.60
2023-11-02T07:32:35.413Z,1.95
2023-11-02T07:35:02.648Z,1.30
2023-11-02T07:37:34.113Z,2.95
2023-11-02T07:40:01.189Z,1.70
2023-11-02T07:42:30.237Z,1.35
2023-11-02T07:44:56.949Z,1.50
2023-11-02T07:47:23.640Z,1.55
2023-11-02T07:49:50.424Z,1.75
2023-11-02T07:52:17.127Z,2.88
2023-11-02T07:54:44.381Z,1.50
2023-11-02T07:57:12.234Z,1.77
2023-11-02T07:59:42.171Z,1.65
2023-11-02T08:02:09.280Z,2.00
2023-11-02T08:04:36.158Z,2.42
2023-11-02T08:07:04.312Z,1.83
2023-11-02T08:09:31.344Z,2.10
2023-11-02T08:11:58.496Z,1.83
2023-11-02T08:14:25.334Z,1.75
2023-11-02T08:16:52.420Z,1.50
2023-11-02T08:19:22.020Z,1.63
2023-11-02T08:21:49.014Z,1.95
2023-11-02T08:24:16.402Z,1.40
2023-11-02T08:26:47.646Z,1.55
2023-11-02T08:29:14.583Z,1.40
2023-11-02T08:31:41.437Z,1.55
2023-11-02T08:34:11.505Z,1.35
2023-11-02T08:36:41.633Z,1.10
2023-11-02T08:39:10.714Z,1.10
2023-11-02T08:41:39.638Z,1.80
2023-11-02T08:44:07.194Z,1.33
2023-11-02T08:46:38.063Z,1.52
2023-11-02T08:49:05.613Z,1.48
2023-11-02T08:51:33.207Z,1.20
2023-11-02T08:54:02.482Z,1.38
2023-11-02T08:56:29.471Z,1.42
2023-11-02T08:58:58.937Z,1.60
2023-11-02T09:01:26.778Z,1.40
2023-11-02T09:03:55.935Z,1.63
2023-11-02T09:06:24.750Z,0.95
2023-11-02T09:08:52.887Z,1.23
2023-11-02T09:11:20.035Z,1.23
2023-11-02T09:13:47.925Z,1.30
2023-11-02T09:16:15.724Z,1.30
2023-11-02T09:18:42.812Z,1.25
2023-11-02T09:21:10.637Z,1.70
2023-11-02T09:23:38.582Z,1.52
2023-11-02T09:26:08.565Z,1.52
2023-11-02T09:28:35.673Z,1.77
2023-11-02T09:31:07.381Z,1.33
2023-11-02T09:33:36.697Z,1.95
2023-11-02T09:36:03.949Z,1.42
2023-11-02T09:38:30.639Z,1.33
2023-11-02T09:40:57.723Z,1.63
2023-11-02T09:43:25.877Z,1.40
2023-11-02T09:45:52.796Z,1.33
2023-11-02T09:48:19.881Z,1.17
2023-11-02T09:50:46.956Z,1.00
2023-11-02T09:53:15.608Z,1.30
2023-11-02T09:55:44.717Z,1.08
2023-11-02T09:58:12.556Z,1.50
2023-11-02T10:00:39.922Z,1.23
2023-11-02T10:03:07.137Z,0.90
2023-11-02T10:05:34.260Z,0.95
2023-11-02T10:08:01.274Z,0.80
2023-11-02T10:10:37.020Z,0.73
2023-11-02T10:13:04.382Z,0.50
2023-11-02T10:15:32.307Z,0.70
2023-11-02T10:18:00.476Z,0.70
2023-11-02T10:20:27.553Z,0.80
2023-11-02T10:23:07.051Z,1.10
2023-11-02T10:25:34.954Z,0.98
2023-11-02T10:28:04.781Z,0.80
2023-11-02T10:30:32.138Z,0.70
2023-11-02T10:33:07.888Z,0.57
2023-11-02T10:35:35.725Z,0.85
2023-11-02T10:38:02.851Z,0.57
2023-11-02T10:40:49.615Z,0.63
2023-11-02T10:43:21.207Z,0.70
2023-11-02T10:45:56.283Z,0.70
2023-11-02T10:48:24.999Z,0.60
2023-11-02T10:50:57.990Z,2.15
2023-11-02T10:53:43.840Z,0.40
2023-11-02T10:56:20.176Z,0.70
2023-11-02T10:58:57.220Z,0.55
2023-11-02T11:01:25.777Z,0.70
2023-11-02T11:03:58.168Z,0.60
2023-11-02T11:06:26.843Z,0.40
2023-11-02T11:08:57.940Z,0.50
2023-11-02T11:11:25.730Z,0.70
2023-11-02T11:13:54.630Z,0.50
2023-11-02T11:16:26.369Z,0.80
2023-11-02T11:18:54.274Z,0.32
2023-11-02T11:21:24.734Z,0.93
2023-11-02T11:23:54.777Z,0.55
2023-11-02T11:26:24.617Z,0.50
2023-11-02T11:28:53.947Z,0.60
2023-11-02T11:31:54.083Z,0.70
2023-11-02T11:34:20.914Z,0.50
2023-11-02T11:36:47.705Z,0.47
2023-11-02T11:39:36.746Z,0.60
2023-11-02T11:42:06.151Z,0.70
2023-11-02T11:44:32.984Z,0.60
2023-11-02T11:47:04.734Z,0.60
2023-11-02T11:49:37.838Z,0.60
2023-11-02T11:52:06.352Z,0.70
2023-11-02T11:54:35.769Z,0.60
2023-11-02T11:57:02.557Z,0.50
2023-11-02T11:59:59.347Z,0.40
2023-11-02T12:02:36.953Z,0.50
2023-11-02T12:05:04.614Z,0.50
2023-11-02T12:07:31.574Z,0.73
2023-11-02T12:10:05.775Z,0.43
2023-11-02T12:12:34.034Z,0.50
2023-11-02T12:15:21.990Z,0.50
2023-11-02T12:17:55.135Z,0.50
2023-11-02T12:20:37.500Z,0.60
2023-11-02T12:23:04.733Z,0.50
2023-11-02T12:25:31.468Z,0.40
2023-11-02T12:28:04.679Z,0.47
2023-11-02T12:30:31.478Z,0.50
2023-11-02T12:33:00.929Z,0.47
2023-11-02T12:35:27.864Z,0.40
2023-11-02T12:38:03.885Z,0.50
2023-11-02T12:40:50.433Z,0.50
2023-11-02T12:43:24.456Z,0.30
2023-11-02T12:48:39.720Z,0.70
2023-11-02T12:51:20.325Z,0.50
2023-11-02T12:54:15.866Z,0.50
2023-11-02T12:56:42.784Z,0.40
2023-11-02T12:59:09.562Z,0.68
2023-11-02T13:01:57.220Z,0.60
2023-11-02T13:04:25.547Z,0.43
2023-11-02T13:06:54.489Z,0.65
2023-11-02T13:09:28.070Z,0.30
2023-11-02T13:11:56.065Z,0.47
2023-11-02T13:14:25.622Z,0.60
2023-11-02T13:16:57.655Z,0.60
2023-11-02T13:19:25.455Z,0.50
2023-11-02T13:21:52.955Z,1.25
2023-11-02T13:24:20.833Z,0.60
2023-11-02T13:26:48.042Z,0.60
2023-11-02T13:29:17.485Z,0.85
2023-11-02T13:31:46.006Z,0.68
2023-11-02T13:34:12.920Z,0.73
2023-11-02T13:36:43.228Z,0.70
2023-11-02T13:39:13.487Z,0.73
2023-11-02T13:41:42.108Z,0.55
2023-11-02T13:44:09.101Z,0.45
2023-11-02T13:46:35.992Z,0.55
2023-11-02T13:49:03.931Z,0.50
2023-11-02T13:51:33.404Z,0.60
2023-11-02T13:54:01.011Z,0.60
2023-11-02T13:56:30.523Z,0.60
2023-11-02T13:58:59.711Z,0.47
2023-11-02T14:01:26.662Z,0.68
2023-11-02T14:03:54.253Z,0.75
2023-11-02T14:06:21.253Z,0.50
2023-11-02T14:08:48.086Z,0.80
2023-11-02T14:11:14.874Z,0.68
2023-11-02T14:13:45.333Z,0.60
2023-11-02T14:16:15.968Z,0.60
2023-11-02T14:18:45.274Z,0.50
2023-11-02T14:21:13.269Z,0.70
2023-11-02T14:23:41.030Z,0.60
2023-11-02T14:26:08.129Z,0.80
2023-11-02T14:28:35.198Z,0.60
2023-11-02T14:31:05.001Z,0.50
2023-11-02T14:33:34.359Z,0.60
2023-11-02T14:36:04.295Z,0.60
2023-11-02T14:38:33.944Z,0.50
2023-11-02T14:41:00.758Z,0.50
2023-11-02T14:43:27.564Z,0.55
2023-11-02T14:45:54.828Z,0.50
2023-11-02T14:48:21.884Z,0.50
2023-11-02T14:50:49.120Z,0.60
2023-11-02T14:53:16.424Z,0.50
2023-11-02T14:55:43.569Z,0.57
2023-11-02T14:58:10.758Z,0.40
2023-11-02T15:00:37.890Z,0.55
2023-11-02T15:03:05.244Z,0.40
2023-11-02T15:05:32.356Z,0.57
2023-11-02T15:08:00.699Z,0.50
2023-11-02T15:10:27.746Z,0.20
2023-11-02T15:12:55.088Z,1.17
2023-11-02T15:15:24.410Z,0.50
2023-11-02T15:17:52.090Z,0.60
2023-11-02T15:20:19.055Z,0.40
2023-11-02T15:22:46.211Z,0.50
2023-11-02T15:25:13.171Z,0.60
2023-11-02T15:27:41.105Z,0.70
2023-11-02T15:30:08.794Z,0.40
2023-11-02T15:32:38.607Z,0.40
2023-11-02T15:35:06.476Z,0.60
2023-11-02T15:37:33.592Z,0.60
2023-11-02T15:40:00.914Z,0.40
2023-11-02T15:42:27.997Z,0.40
2023-11-02T15:44:58.042Z,0.93
2023-11-02T15:47:26.027Z,0.47
2023-11-02T15:49:54.471Z,0.50
2023-11-02T15:52:23.075Z,0.47
2023-11-02T15:54:54.627Z,0.80
2023-11-02T15:57:24.823Z,0.68
2023-11-02T15:59:52.082Z,0.80
2023-11-02T16:02:21.777Z,0.95
2023-11-02T16:04:50.667Z,1.10
2023-11-02T16:07:17.929Z,0.70
2023-11-02T16:09:45.082Z,0.70
2023-11-02T16:12:12.230Z,0.80
2023-11-02T16:14:39.620Z,0.88
2023-11-02T16:17:06.750Z,0.82
2023-11-02T16:19:36.990Z,0.80
2023-11-02T16:22:04.305Z,0.88
2023-11-02T16:24:31.047Z,0.80
2023-11-02T16:26:58.143Z,0.93
2023-11-02T16:29:27.823Z,0.68
2023-11-02T16:31:57.474Z,0.90
2023-11-02T16:34:35.692Z,0.90
2023-11-02T16:37:11.948Z,0.57
2023-11-02T16:39:44.350Z,0.50
2023-11-02T16:42:11.774Z,0.52
2023-11-02T16:44:41.929Z,0.70
2023-11-02T16:47:08.684Z,0.50
2023-11-02T16:49:40.236Z,0.65
2023-11-02T16:52:09.880Z,0.60
2023-11-02T16:54:36.621Z,0.50
2023-11-02T16:57:03.538Z,0.50
2023-11-02T16:59:32.484Z,0.50
2023-11-02T17:01:59.301Z,0.50
2023-11-02T17:04:26.143Z,0.68
2023-11-02T17:06:53.203Z,0.65
2023-11-02T17:09:20.496Z,0.63
2023-11-02T17:11:49.801Z,0.70
2023-11-02T17:14:18.687Z,0.55
2023-11-02T17:16:47.702Z,0.80
2023-11-02T17:19:15.199Z,0.50
2023-11-02T17:21:43.560Z,0.85
2023-11-02T17:24:11.740Z,0.95
2023-11-02T17:26:40.626Z,0.70
2023-11-02T17:29:08.516Z,0.88
2023-11-02T17:31:35.539Z,0.75
2023-11-02T17:34:04.787Z,0.85
2023-11-02T17:36:34.203Z,1.67
2023-11-02T17:39:01.154Z,0.60
2023-11-02T17:41:35.420Z,0.60
2023-11-02T17:44:05.257Z,0.60
2023-11-02T17:46:34.451Z,1.17
2023-11-02T17:49:01.267Z,0.70
2023-11-02T17:51:28.061Z,0.40
2023-11-02T17:53:54.834Z,1.55
2023-11-02T17:56:21.546Z,1.27
2023-11-02T17:58:48.224Z,0.90
2023-11-02T18:01:18.272Z,0.50
2023-11-02T18:03:45.089Z,0.60
2023-11-02T18:06:12.212Z,0.80
2023-11-02T18:08:39.029Z,0.40
2023-11-02T18:11:06.051Z,1.63
2023-11-02T18:13:32.857Z,0.75
2023-11-02T18:15:59.906Z,0.68
2023-11-02T18:18:26.711Z,0.40
2023-11-02T18:20:53.539Z,0.55
2023-11-02T18:23:23.718Z,0.73
2023-11-02T18:25:51.105Z,0.40
2023-11-02T18:28:20.319Z,0.73
2023-11-02T18:30:47.546Z,0.35
2023-11-02T18:33:16.617Z,0.60
2023-11-02T18:35:45.614Z,0.60
2023-11-02T18:38:15.123Z,0.50
2023-11-02T18:40:46.644Z,0.80
2023-11-02T18:43:15.848Z,0.50
2023-11-02T18:45:43.040Z,0.60
2023-11-02T18:48:10.370Z,0.45
2023-11-02T18:50:37.538Z,0.55
2023-11-02T18:53:04.359Z,1.23
2023-11-02T18:55:33.682Z,0.80
2023-11-02T18:58:00.598Z,0.70
2023-11-02T19:00:27.500Z,1.00
2023-11-02T19:02:55.619Z,0.60
2023-11-02T19:05:22.464Z,0.82
2023-11-02T19:07:50.600Z,0.65
2023-11-02T19:10:17.755Z,0.50
2023-11-02T19:12:44.622Z,0.63
2023-11-02T19:15:11.452Z,0.60
2023-11-02T19:17:38.391Z,0.80
2023-11-02T19:20:06.526Z,0.57
2023-11-02T19:22:35.006Z,0.95
2023-11-02T19:25:02.387Z,0.90
2023-11-02T19:27:29.271Z,0.65
2023-11-02T19:29:58.189Z,0.70
2023-11-02T19:32:24.956Z,0.65
2023-11-02T19:34:52.188Z,0.65
2023-11-02T19:37:19.083Z,0.65
2023-11-02T19:39:46.030Z,0.82
2023-11-02T19:42:15.301Z,0.88
2023-11-02T19:44:42.599Z,0.85
2023-11-02T19:47:09.490Z,0.80
2023-11-02T19:49:36.416Z,0.85
2023-11-02T19:52:03.768Z,0.90
2023-11-02T19:54:30.564Z,0.82
2023-11-02T19:56:59.704Z,0.98
2023-11-02T19:59:31.905Z,1.00
2023-11-02T20:01:58.723Z,1.10
2023-11-02T20:04:28.849Z,1.05
2023-11-02T20:06:56.265Z,0.90
2023-11-02T20:09:23.126Z,0.98
2023-11-02T20:11:50.020Z,1.35
2023-11-02T20:14:16.878Z,0.90
2023-11-02T20:16:45.231Z,0.90
2023-11-02T20:19:12.503Z,1.00
2023-11-02T20:21:39.491Z,1.27
2023-11-02T20:24:06.688Z,0.95
2023-11-02T20:26:36.163Z,1.30
2023-11-02T20:29:05.525Z,2.03
2023-11-02T20:31:32.228Z,1.23
2023-11-02T20:33:59.481Z,1.40
2023-11-02T20:36:29.571Z,1.13
2023-11-02T20:38:56.756Z,1.30
2023-11-02T20:41:23.567Z,1.90
2023-11-02T20:43:50.814Z,1.58
2023-11-02T20:46:19.485Z,1.95
2023-11-02T20:48:46.337Z,1.60
2023-11-02T20:51:15.510Z,1.75
2023-11-02T20:53:42.327Z,1.33
2023-11-02T20:56:09.178Z,2.40
2023-11-02T20:58:36.678Z,2.00
2023-11-02T21:01:04.333Z,1.48
2023-11-02T21:03:34.236Z,1.80
2023-11-02T21:06:02.638Z,1.30
2023-11-02T21:08:33.776Z,0.90
2023-11-02T21:11:09.354Z,1.30
2023-11-02T21:13:40.926Z,1.45
2023-11-02T21:16:11.268Z,2.85
2023-11-02T21:18:38.064Z,1.60
2023-11-02T21:21:09.168Z,1.35
2023-11-02T21:23:38.117Z,1.20
2023-11-02T21:26:07.871Z,1.20
2023-11-02T21:28:37.019Z,1.40
2023-11-02T21:31:04.704Z,1.05
2023-11-02T21:33:36.506Z,1.08
2023-11-02T21:36:03.752Z,1.23
2023-11-02T21:38:33.014Z,1.20
2023-11-02T21:40:59.773Z,0.93
2023-11-02T21:43:26.644Z,1.02
2023-11-02T21:45:53.469Z,1.02
2023-11-02T21:48:20.296Z,1.20
2023-11-02T21:50:49.185Z,1.23
2023-11-02T21:53:18.107Z,1.35
2023-11-02T21:55:44.821Z,1.25
2023-11-02T21:58:15.562Z,1.20
2023-11-02T22:00:42.593Z,1.80
2023-11-02T22:03:11.595Z,1.30
2023-11-02T22:05:40.840Z,1.00
2023-11-02T22:08:07.638Z,2.53
2023-11-02T22:10:36.849Z,1.45
2023-11-02T22:13:03.620Z,1.60
2023-11-02T22:15:32.845Z,1.15
2023-11-02T22:17:59.821Z,1.35
2023-11-02T22:20:26.872Z,1.70
2023-11-02T22:22:53.750Z,1.33
2023-11-02T22:25:20.516Z,1.30
2023-11-02T22:27:47.318Z,1.20
2023-11-02T22:30:14.637Z,1.35
2023-11-02T22:32:42.614Z,1.13
2023-11-02T22:35:09.680Z,1.65
2023-11-02T22:37:37.098Z,1.20
2023-11-02T22:40:06.453Z,1.30
2023-11-02T22:42:33.225Z,1.20
2023-11-02T22:45:00.425Z,1.67
2023-11-02T22:47:27.209Z,1.75
2023-11-02T22:49:54.042Z,1.50
2023-11-02T22:52:20.743Z,0.95
2023-11-02T22:54:47.664Z,1.30
2023-11-02T22:57:14.387Z,1.75
2023-11-02T22:59:46.128Z,1.50
2023-11-02T23:02:12.803Z,1.25
2023-11-02T23:04:45.782Z,1.05
2023-11-02T23:07:12.626Z,1.20
2023-11-02T23:09:39.416Z,1.48
2023-11-02T23:12:09.102Z,1.23
2023-11-02T23:14:35.818Z,1.38
2023-11-02T23:17:02.685Z,1.58
2023-11-02T23:19:29.772Z,1.48
2023-11-02T23:21:56.565Z,1.60
2023-11-02T23:24:23.251Z,1.60
2023-11-02T23:26:50.216Z,1.63
2023-11-02T23:29:19.237Z,1.90
2023-11-02T23:31:50.681Z,2.25
2023-11-02T23:34:17.653Z,1.88
2023-11-02T23:36:44.383Z,1.50
2023-11-02T23:39:13.573Z,1.40
2023-11-02T23:41:41.684Z,1.33
2023-11-02T23:44:08.455Z,1.33
2023-11-02T23:46:37.361Z,1.20
2023-11-02T23:49:05.374Z,1.35
2023-11-02T23:51:32.224Z,1.30
2023-11-02T23:53:58.969Z,1.17
2023-11-02T23:56:25.674Z,1.42
2023-11-02T23:58:52.362Z,1.23
